sensor_id;sensor_type;location;lat;lon;timestamp;pressure;altitude;pressure_sealevel;temperature;humidity
53270;BME280;39159;45.634;9.420;2024-02-15T00:02:02;99706.72;;;6.53;100.00
53270;BME280;39159;45.634;9.420;2024-02-15T00:04:27;99709.41;;;6.48;100.00
53270;BME280;39159;45.634;9.420;2024-02-15T00:06:52;99716.69;;;6.42;100.00
53270;BME280;39159;45.634;9.420;2024-02-15T00:09:17;99712.03;;;6.37;100.00
53270;BME280;39159;45.634;9.420;2024-02-15T00:11:43;99708.78;;;6.35;100.00
53270;BME280;39159;45.634;9.420;2024-02-15T00:14:08;99706.91;;;6.36;100.00
53270;BME280;39159;45.634;9.420;2024-02-15T00:16:34;99712.81;;;6.33;100.00
53270;BME280;39159;45.634;9.420;2024-02-15T00:19:00;99713.63;;;6.33;100.00
53270;BME280;39159;45.634;9.420;2024-02-15T00:21:25;99702.78;;;6.33;100.00
53270;BME280;39159;45.634;9.420;2024-02-15T00:23:51;99702.78;;;6.33;100.00
53270;BME280;39159;45.634;9.420;2024-02-15T00:26:16;99706.28;;;6.29;100.00
53270;BME280;39159;45.634;9.420;2024-02-15T00:28:41;99705.72;;;6.27;100.00
53270;BME280;39159;45.634;9.420;2024-02-15T00:31:06;99709.78;;;6.24;100.00
53270;BME280;39159;45.634;9.420;2024-02-15T00:33:33;99700.53;;;6.20;100.00
53270;BME280;39159;45.634;9.420;2024-02-15T00:35:58;99706.53;;;6.22;100.00
53270;BME280;39159;45.634;9.420;2024-02-15T00:38:23;99710.88;;;6.23;100.00
53270;BME280;39159;45.634;9.420;2024-02-15T00:40:48;99697.81;;;6.20;100.00
53270;BME280;39159;45.634;9.420;2024-02-15T00:43:14;99700.53;;;6.20;100.00
53270;BME280;39159;45.634;9.420;2024-02-15T00:45:39;99701.84;;;6.12;100.00
53270;BME280;39159;45.634;9.420;2024-02-15T00:48:05;99698.81;;;6.04;100.00
53270;BME280;39159;45.634;9.420;2024-02-15T00:50:31;99700.44;;;6.05;100.00
53270;BME280;39159;45.634;9.420;2024-02-15T00:52:56;99696.66;;;6.06;100.00
53270;BME280;39159;45.634;9.420;2024-02-15T00:55:21;99700.97;;;6.07;100.00
53270;BME280;39159;45.634;9.420;2024-02-15T00:57:46;99698.84;;;6.09;100.00
53270;BME280;39159;45.634;9.420;2024-02-15T01:00:12;99699.13;;;6.07;100.00
53270;BME280;39159;45.634;9.420;2024-02-15T01:02:38;99701.03;;;6.12;100.00
53270;BME280;39159;45.634;9.420;2024-02-15T01:05:03;99702.66;;;6.13;100.00
53270;BME280;39159;45.634;9.420;2024-02-15T01:07:28;99701.06;;;6.17;100.00
53270;BME280;39159;45.634;9.420;2024-02-15T01:09:53;99698.09;;;6.18;100.00
53270;BME280;39159;45.634;9.420;2024-02-15T01:12:19;99698.91;;;6.19;100.00
53270;BME280;39159;45.634;9.420;2024-02-15T01:14:45;99696.75;;;6.16;100.00
53270;BME280;39159;45.634;9.420;2024-02-15T01:17:11;99695.09;;;6.15;100.00
53270;BME280;39159;45.634;9.420;2024-02-15T01:19:36;99690.19;;;6.12;100.00
53270;BME280;39159;45.634;9.420;2024-02-15T01:22:01;99683.66;;;6.08;100.00
53270;BME280;39159;45.634;9.420;2024-02-15T01:24:27;99683.13;;;6.11;100.00
53270;BME280;39159;45.634;9.420;2024-02-15T01:26:52;99683.66;;;6.08;100.00
53270;BME280;39159;45.634;9.420;2024-02-15T01:29:18;99685.56;;;6.07;100.00
53270;BME280;39159;45.634;9.420;2024-02-15T01:31:43;99682.84;;;6.07;100.00
53270;BME280;39159;45.634;9.420;2024-02-15T01:34:09;99680.97;;;6.08;100.00
53270;BME280;39159;45.634;9.420;2024-02-15T01:36:34;99677.13;;;6.04;100.00
53270;BME280;39159;45.634;9.420;2024-02-15T01:39:00;99677.13;;;6.04;100.00
53270;BME280;39159;45.634;9.420;2024-02-15T01:41:25;99673.63;;;6.08;100.00
53270;BME280;39159;45.634;9.420;2024-02-15T01:43:50;99669.03;;;6.09;100.00
53270;BME280;39159;45.634;9.420;2024-02-15T01:46:16;99669.03;;;6.09;100.00
53270;BME280;39159;45.634;9.420;2024-02-15T01:48:41;99670.94;;;6.08;100.00
53270;BME280;39159;45.634;9.420;2024-02-15T01:51:07;99674.16;;;6.05;100.00
53270;BME280;39159;45.634;9.420;2024-02-15T01:53:35;99667.91;;;6.05;100.00
53270;BME280;39159;45.634;9.420;2024-02-15T01:56:00;99661.97;;;6.03;100.00
53270;BME280;39159;45.634;9.420;2024-02-15T01:58:26;99664.66;;;6.03;100.00
53270;BME280;39159;45.634;9.420;2024-02-15T02:00:52;99668.44;;;6.01;100.00
53270;BME280;39159;45.634;9.420;2024-02-15T02:03:18;99668.44;;;6.01;100.00
53270;BME280;39159;45.634;9.420;2024-02-15T02:05:45;99671.97;;;6.02;100.00
53270;BME280;39159;45.634;9.420;2024-02-15T02:08:11;99670.09;;;6.03;100.00
53270;BME280;39159;45.634;9.420;2024-02-15T02:10:36;99673.31;;;6.05;100.00
53270;BME280;39159;45.634;9.420;2024-02-15T02:13:02;99671.19;;;6.07;100.00
53270;BME280;39159;45.634;9.420;2024-02-15T02:15:27;99662.50;;;6.05;100.00
53270;BME280;39159;45.634;9.420;2024-02-15T02:17:53;99661.19;;;6.12;100.00
53270;BME280;39159;45.634;9.420;2024-02-15T02:20:19;99658.53;;;6.17;100.00
53270;BME280;39159;45.634;9.420;2024-02-15T02:22:45;99663.69;;;6.19;100.00
53270;BME280;39159;45.634;9.420;2024-02-15T02:25:11;99658.25;;;6.19;100.00
53270;BME280;39159;45.634;9.420;2024-02-15T02:27:38;99657.16;;;6.20;100.00
53270;BME280;39159;45.634;9.420;2024-02-15T02:30:12;99655.81;;;6.17;100.00
53270;BME280;39159;45.634;9.420;2024-02-15T02:32:40;99645.78;;;6.18;100.00
53270;BME280;39159;45.634;9.420;2024-02-15T02:35:05;99657.72;;;6.17;100.00
53270;BME280;39159;45.634;9.420;2024-02-15T02:37:32;99651.72;;;6.15;100.00
53270;BME280;39159;45.634;9.420;2024-02-15T02:40:01;99649.28;;;6.13;100.00
53270;BME280;39159;45.634;9.420;2024-02-15T02:42:27;99652.25;;;6.12;100.00
53270;BME280;39159;45.634;9.420;2024-02-15T02:44:52;99647.34;;;6.09;100.00
53270;BME280;39159;45.634;9.420;2024-02-15T02:47:17;99647.31;;;6.04;100.00
53270;BME280;39159;45.634;9.420;2024-02-15T02:49:42;99639.16;;;5.98;100.00
53270;BME280;39159;45.634;9.420;2024-02-15T02:52:08;99634.75;;;5.92;100.00
53270;BME280;39159;45.634;9.420;2024-02-15T02:54:33;99635.53;;;5.88;100.00
53270;BME280;39159;45.634;9.420;2024-02-15T02:56:59;99632.53;;;5.84;100.00
53270;BME280;39159;45.634;9.420;2024-02-15T02:59:24;99632.75;;;5.77;100.00
53270;BME280;39159;45.634;9.420;2024-02-15T03:01:50;99633.53;;;5.73;100.00
53270;BME280;39159;45.634;9.420;2024-02-15T03:04:15;99627.00;;;5.69;100.00
53270;BME280;39159;45.634;9.420;2024-02-15T03:06:43;99633.47;;;5.63;100.00
53270;BME280;39159;45.634;9.420;2024-02-15T03:09:09;99628.03;;;5.63;100.00
53270;BME280;39159;45.634;9.420;2024-02-15T03:11:35;99626.97;;;5.64;100.00
53270;BME280;39159;45.634;9.420;2024-02-15T03:14:00;99627.50;;;5.66;100.00
53270;BME280;39159;45.634;9.420;2024-02-15T03:16:29;99633.75;;;5.66;100.00
53270;BME280;39159;45.634;9.420;2024-02-15T03:18:54;99634.56;;;5.67;100.00
53270;BME280;39159;45.634;9.420;2024-02-15T03:21:19;99636.97;;;5.63;100.00
53270;BME280;39159;45.634;9.420;2024-02-15T03:23:45;99643.72;;;5.60;100.00
53270;BME280;39159;45.634;9.420;2024-02-15T03:26:10;99643.66;;;5.55;100.00
53270;BME280;39159;45.634;9.420;2024-02-15T03:28:36;99638.78;;;5.52;100.00
53270;BME280;39159;45.634;9.420;2024-02-15T03:31:02;99637.34;;;5.45;100.00
53270;BME280;39159;45.634;9.420;2024-02-15T03:33:28;99637.88;;;5.42;100.00
53270;BME280;39159;45.634;9.420;2024-02-15T03:35:58;99631.31;;;5.37;100.00
53270;BME280;39159;45.634;9.420;2024-02-15T03:38:25;99642.69;;;5.34;100.00
53270;BME280;39159;45.634;9.420;2024-02-15T03:40:52;99634.84;;;5.38;100.00
53270;BME280;39159;45.634;9.420;2024-02-15T03:43:17;99631.84;;;5.34;100.00
53270;BME280;39159;45.634;9.420;2024-02-15T03:45:42;99627.50;;;5.33;100.00
53270;BME280;39159;45.634;9.420;2024-02-15T03:48:09;99635.34;;;5.30;100.00
53270;BME280;39159;45.634;9.420;2024-02-15T03:50:34;99635.34;;;5.30;100.00
53270;BME280;39159;45.634;9.420;2024-02-15T03:53:00;99633.13;;;5.27;100.00
53270;BME280;39159;45.634;9.420;2024-02-15T03:55:25;99624.41;;;5.19;100.00
53270;BME280;39159;45.634;9.420;2024-02-15T03:57:50;99632.78;;;5.18;100.00
53270;BME280;39159;45.634;9.420;2024-02-15T04:00:16;99634.06;;;5.10;100.00
53270;BME280;39159;45.634;9.420;2024-02-15T04:02:45;99638.59;;;5.05;100.00
53270;BME280;39159;45.634;9.420;2024-02-15T04:05:13;99639.91;;;5.02;100.00
53270;BME280;39159;45.634;9.420;2024-02-15T04:07:38;99643.13;;;4.99;100.00
53270;BME280;39159;45.634;9.420;2024-02-15T04:10:04;99640.94;;;4.96;100.00
53270;BME280;39159;45.634;9.420;2024-02-15T04:12:30;99640.38;;;4.94;100.00
53270;BME280;39159;45.634;9.420;2024-02-15T04:14:56;99643.66;;;4.96;100.00
53270;BME280;39159;45.634;9.420;2024-02-15T04:17:25;99650.94;;;4.95;100.00
53270;BME280;39159;45.634;9.420;2024-02-15T04:19:50;99651.25;;;4.99;100.00
53270;BME280;39159;45.634;9.420;2024-02-15T04:22:16;99649.66;;;5.03;100.00
53270;BME280;39159;45.634;9.420;2024-02-15T04:24:42;99650.25;;;5.05;100.00
53270;BME280;39159;45.634;9.420;2024-02-15T04:27:07;99646.16;;;5.03;100.00
53270;BME280;39159;45.634;9.420;2024-02-15T04:29:33;99645.06;;;5.04;100.00
53270;BME280;39159;45.634;9.420;2024-02-15T04:31:58;99648.03;;;5.02;100.00
53270;BME280;39159;45.634;9.420;2024-02-15T04:34:24;99644.50;;;5.02;100.00
53270;BME280;39159;45.634;9.420;2024-02-15T04:36:49;99645.41;;;5.07;100.00
53270;BME280;39159;45.634;9.420;2024-02-15T04:39:16;99644.34;;;5.13;100.00
53270;BME280;39159;45.634;9.420;2024-02-15T04:41:49;99643.84;;;5.16;100.00
53270;BME280;39159;45.634;9.420;2024-02-15T04:44:15;99642.22;;;5.15;100.00
53270;BME280;39159;45.634;9.420;2024-02-15T04:46:41;99638.13;;;5.13;100.00
53270;BME280;39159;45.634;9.420;2024-02-15T04:49:08;99638.94;;;5.13;100.00
53270;BME280;39159;45.634;9.420;2024-02-15T04:51:33;99644.63;;;5.12;100.00
53270;BME280;39159;45.634;9.420;2024-02-15T04:53:58;99634.81;;;5.06;100.00
53270;BME280;39159;45.634;9.420;2024-02-15T04:56:26;99637.47;;;5.01;100.00
53270;BME280;39159;45.634;9.420;2024-02-15T04:58:52;99630.13;;;4.96;100.00
53270;BME280;39159;45.634;9.420;2024-02-15T05:01:17;99634.09;;;4.88;100.00
53270;BME280;39159;45.634;9.420;2024-02-15T05:03:45;99633.78;;;4.85;100.00
53270;BME280;39159;45.634;9.420;2024-02-15T05:06:11;99636.53;;;4.90;100.00
53270;BME280;39159;45.634;9.420;2024-02-15T05:08:39;99629.25;;;4.90;100.00
53270;BME280;39159;45.634;9.420;2024-02-15T05:11:11;99631.94;;;4.90;100.00
53270;BME280;39159;45.634;9.420;2024-02-15T05:13:44;99637.69;;;4.94;100.00
53270;BME280;39159;45.634;9.420;2024-02-15T05:16:10;99637.16;;;4.97;100.00
53270;BME280;39159;45.634;9.420;2024-02-15T05:18:35;99639.91;;;5.02;100.00
53270;BME280;39159;45.634;9.420;2024-02-15T05:21:01;99636.16;;;5.03;100.00
53270;BME280;39159;45.634;9.420;2024-02-15T05:23:26;99634.50;;;5.02;100.00
53270;BME280;39159;45.634;9.420;2024-02-15T05:25:51;99639.22;;;5.12;100.00
53270;BME280;39159;45.634;9.420;2024-02-15T05:28:19;99632.69;;;5.08;100.00
53270;BME280;39159;45.634;9.420;2024-02-15T05:30:45;99634.00;;;5.05;100.00
53270;BME280;39159;45.634;9.420;2024-02-15T05:33:10;99644.56;;;5.07;100.00
53270;BME280;39159;45.634;9.420;2024-02-15T05:35:36;99640.28;;;5.11;100.00
53270;BME280;39159;45.634;9.420;2024-02-15T05:38:04;99635.44;;;5.13;100.00
53270;BME280;39159;45.634;9.420;2024-02-15T05:40:31;99640.53;;;5.09;100.00
53270;BME280;39159;45.634;9.420;2024-02-15T05:42:56;99630.78;;;5.08;100.00
53270;BME280;39159;45.634;9.420;2024-02-15T05:47:49;99637.88;;;5.14;100.00
53270;BME280;39159;45.634;9.420;2024-02-15T05:50:15;99641.19;;;5.22;100.00
53270;BME280;39159;45.634;9.420;2024-02-15T05:52:40;99640.13;;;5.23;100.00
53270;BME280;39159;45.634;9.420;2024-02-15T05:55:05;99642.88;;;5.28;100.00
53270;BME280;39159;45.634;9.420;2024-02-15T05:57:30;99645.03;;;5.26;100.00
53270;BME280;39159;45.634;9.420;2024-02-15T05:59:56;99636.38;;;5.29;100.00
53270;BME280;39159;45.634;9.420;2024-02-15T06:02:21;99644.47;;;5.24;100.00
53270;BME280;39159;45.634;9.420;2024-02-15T06:04:46;99640.13;;;5.23;100.00
53270;BME280;39159;45.634;9.420;2024-02-15T06:07:12;99639.63;;;5.26;100.00
53270;BME280;39159;45.634;9.420;2024-02-15T06:09:37;99632.06;;;5.28;100.00
53270;BME280;39159;45.634;9.420;2024-02-15T06:12:05;99638.31;;;5.33;100.00
53270;BME280;39159;45.634;9.420;2024-02-15T06:14:31;99629.50;;;5.43;100.00
53270;BME280;39159;45.634;9.420;2024-02-15T06:16:56;99631.41;;;5.43;100.00
53270;BME280;39159;45.634;9.420;2024-02-15T06:19:23;99637.34;;;5.45;100.00
53270;BME280;39159;45.634;9.420;2024-02-15T06:21:48;99639.81;;;5.46;100.00
53270;BME280;39159;45.634;9.420;2024-02-15T06:24:13;99630.31;;;5.44;100.00
53270;BME280;39159;45.634;9.420;2024-02-15T06:26:39;99638.41;;;5.38;100.00
53270;BME280;39159;45.634;9.420;2024-02-15T06:29:04;99642.06;;;5.27;100.00
53270;BME280;39159;45.634;9.420;2024-02-15T06:31:48;99639.00;;;5.18;100.00
53270;BME280;39159;45.634;9.420;2024-02-15T06:34:32;99639.22;;;5.12;100.00
53270;BME280;39159;45.634;9.420;2024-02-15T06:37:34;99645.03;;;4.98;100.00
53270;BME280;39159;45.634;9.420;2024-02-15T06:40:18;99646.34;;;4.96;100.00
53270;BME280;39159;45.634;9.420;2024-02-15T06:42:43;99650.94;;;4.95;100.00
53270;BME280;39159;45.634;9.420;2024-02-15T06:45:08;99647.16;;;4.96;100.00
53270;BME280;39159;45.634;9.420;2024-02-15T06:47:35;99644.50;;;5.02;100.00
53270;BME280;39159;45.634;9.420;2024-02-15T06:50:00;99647.34;;;5.12;100.00
53270;BME280;39159;45.634;9.420;2024-02-15T06:52:25;99650.88;;;5.17;100.00
53270;BME280;39159;45.634;9.420;2024-02-15T06:54:50;99650.66;;;5.19;100.00
53270;BME280;39159;45.634;9.420;2024-02-15T06:57:17;99658.59;;;5.31;100.00
53270;BME280;39159;45.634;9.420;2024-02-15T06:59:45;99650.94;;;5.50;100.00
53270;BME280;39159;45.634;9.420;2024-02-15T07:02:11;99655.03;;;5.52;100.00
53270;BME280;39159;45.634;9.420;2024-02-15T07:04:37;99655.03;;;5.52;100.00
53270;BME280;39159;45.634;9.420;2024-02-15T07:07:02;99652.34;;;5.57;100.00
53270;BME280;39159;45.634;9.420;2024-02-15T07:09:28;99656.75;;;5.64;100.00
53270;BME280;39159;45.634;9.420;2024-02-15T07:11:53;99652.91;;;5.59;100.00
53270;BME280;39159;45.634;9.420;2024-02-15T07:14:18;99663.03;;;5.69;100.00
53270;BME280;39159;45.634;9.420;2024-02-15T07:16:47;99660.38;;;5.79;100.00
53270;BME280;39159;45.634;9.420;2024-02-15T07:19:14;99657.78;;;5.90;100.00
53270;BME280;39159;45.634;9.420;2024-02-15T07:21:40;99655.69;;;5.97;100.00
53270;BME280;39159;45.634;9.420;2024-02-15T07:24:05;99663.34;;;6.05;100.00
53270;BME280;39159;45.634;9.420;2024-02-15T07:26:30;99670.69;;;6.10;100.00
53270;BME280;39159;45.634;9.420;2024-02-15T07:28:56;99662.25;;;6.11;100.00
53270;BME280;39159;45.634;9.420;2024-02-15T07:31:22;99668.06;;;6.25;100.00
53270;BME280;39159;45.634;9.420;2024-02-15T07:33:48;99672.16;;;6.33;100.00
53270;BME280;39159;45.634;9.420;2024-02-15T07:36:13;99663.81;;;6.44;100.00
53270;BME280;39159;45.634;9.420;2024-02-15T07:38:39;99666.28;;;6.51;100.00
53270;BME280;39159;45.634;9.420;2024-02-15T07:41:05;99676.09;;;6.57;100.00
53270;BME280;39159;45.634;9.420;2024-02-15T07:43:30;99678.00;;;6.62;100.00
53270;BME280;39159;45.634;9.420;2024-02-15T07:45:55;99677.47;;;6.60;100.00
53270;BME280;39159;45.634;9.420;2024-02-15T07:48:20;99672.03;;;6.55;100.00
53270;BME280;39159;45.634;9.420;2024-02-15T07:50:46;99673.34;;;6.47;100.00
53270;BME280;39159;45.634;9.420;2024-02-15T07:53:11;99664.69;;;6.50;100.00
53270;BME280;39159;45.634;9.420;2024-02-15T07:55:37;99672.34;;;6.63;100.00
53270;BME280;39159;45.634;9.420;2024-02-15T07:58:03;99677.03;;;6.89;100.00
53270;BME280;39159;45.634;9.420;2024-02-15T08:00:28;99677.66;;;7.11;100.00
53270;BME280;39159;45.634;9.420;2024-02-15T08:02:54;99675.00;;;7.42;100.00
53270;BME280;39159;45.634;9.420;2024-02-15T08:05:20;99680.22;;;7.74;100.00
53270;BME280;39159;45.634;9.420;2024-02-15T08:07:46;99676.97;;;8.03;100.00
53270;BME280;39159;45.634;9.420;2024-02-15T08:10:12;99671.22;;;8.30;100.00
53270;BME280;39159;45.634;9.420;2024-02-15T08:12:44;99676.06;;;8.59;99.53
53270;BME280;39159;45.634;9.420;2024-02-15T08:15:09;99669.13;;;8.92;97.43
53270;BME280;39159;45.634;9.420;2024-02-15T08:17:38;99667.41;;;9.11;94.52
53270;BME280;39159;45.634;9.420;2024-02-15T08:20:05;99670.88;;;9.22;91.90
53270;BME280;39159;45.634;9.420;2024-02-15T08:22:32;99669.47;;;9.25;89.70
53270;BME280;39159;45.634;9.420;2024-02-15T08:24:57;99666.75;;;9.30;90.14
53270;BME280;39159;45.634;9.420;2024-02-15T08:27:22;99661.53;;;9.33;91.71
53270;BME280;39159;45.634;9.420;2024-02-15T08:29:48;99662.59;;;9.38;92.46
53270;BME280;39159;45.634;9.420;2024-02-15T08:32:13;99661.22;;;9.45;90.51
53270;BME280;39159;45.634;9.420;2024-02-15T08:34:39;99660.63;;;9.48;91.92
53270;BME280;39159;45.634;9.420;2024-02-15T08:37:04;99663.13;;;9.40;92.83
53270;BME280;39159;45.634;9.420;2024-02-15T08:39:30;99666.13;;;9.43;93.17
53270;BME280;39159;45.634;9.420;2024-02-15T08:41:55;99662.06;;;9.41;91.45
53270;BME280;39159;45.634;9.420;2024-02-15T08:44:20;99661.75;;;9.42;90.87
53270;BME280;39159;45.634;9.420;2024-02-15T08:46:46;99664.84;;;9.30;90.56
53270;BME280;39159;45.634;9.420;2024-02-15T08:49:13;99664.78;;;9.36;91.35
53270;BME280;39159;45.634;9.420;2024-02-15T08:51:38;99669.13;;;9.42;92.12
53270;BME280;39159;45.634;9.420;2024-02-15T08:54:04;99670.22;;;9.41;91.25
53270;BME280;39159;45.634;9.420;2024-02-15T08:56:29;99665.28;;;9.48;90.28
53270;BME280;39159;45.634;9.420;2024-02-15T08:58:54;99664.34;;;9.63;88.51
53270;BME280;39159;45.634;9.420;2024-02-15T09:01:19;99661.66;;;9.92;88.91
53270;BME280;39159;45.634;9.420;2024-02-15T09:03:44;99654.00;;;10.23;89.46
53270;BME280;39159;45.634;9.420;2024-02-15T09:06:10;99652.22;;;10.08;84.15
53270;BME280;39159;45.634;9.420;2024-02-15T09:08:35;99658.81;;;10.02;83.02
53270;BME280;39159;45.634;9.420;2024-02-15T09:11:00;99653.28;;;10.12;84.65
53270;BME280;39159;45.634;9.420;2024-02-15T09:13:26;99648.56;;;10.23;82.49
53270;BME280;39159;45.634;9.420;2024-02-15T09:15:51;99636.22;;;10.55;82.17
53270;BME280;39159;45.634;9.420;2024-02-15T09:18:16;99640.06;;;10.97;80.58
53270;BME280;39159;45.634;9.420;2024-02-15T09:20:47;99637.72;;;11.47;81.27
53270;BME280;39159;45.634;9.420;2024-02-15T09:23:14;99640.28;;;11.57;75.99
53270;BME280;39159;45.634;9.420;2024-02-15T09:25:39;99650.47;;;11.71;72.47
53270;BME280;39159;45.634;9.420;2024-02-15T09:28:05;99639.81;;;11.88;71.03
53270;BME280;39159;45.634;9.420;2024-02-15T09:30:30;99640.34;;;11.90;69.39
53270;BME280;39159;45.634;9.420;2024-02-15T09:32:56;99642.38;;;12.45;69.60
53270;BME280;39159;45.634;9.420;2024-02-15T09:35:22;99640.03;;;12.66;66.79
53270;BME280;39159;45.634;9.420;2024-02-15T09:37:47;99648.78;;;13.04;66.28
53270;BME280;39159;45.634;9.420;2024-02-15T09:40:17;99640.63;;;13.27;63.65
53270;BME280;39159;45.634;9.420;2024-02-15T09:42:46;99637.06;;;13.40;64.17
53270;BME280;39159;45.634;9.420;2024-02-15T09:45:12;99643.19;;;13.37;64.48
53270;BME280;39159;45.634;9.420;2024-02-15T09:47:39;99650.81;;;13.63;62.49
53270;BME280;39159;45.634;9.420;2024-02-15T09:50:25;99648.50;;;13.79;61.09
53270;BME280;39159;45.634;9.420;2024-02-15T09:52:55;99648.66;;;13.82;59.67
53270;BME280;39159;45.634;9.420;2024-02-15T09:55:21;99653.66;;;13.80;60.75
53270;BME280;39159;45.634;9.420;2024-02-15T09:57:48;99657.03;;;13.77;60.96
53270;BME280;39159;45.634;9.420;2024-02-15T10:00:14;99647.88;;;13.59;62.89
53270;BME280;39159;45.634;9.420;2024-02-15T10:02:40;99647.44;;;13.88;62.29
53270;BME280;39159;45.634;9.420;2024-02-15T10:05:07;99654.16;;;13.82;60.48
53270;BME280;39159;45.634;9.420;2024-02-15T10:07:36;99645.56;;;13.98;60.84
53270;BME280;39159;45.634;9.420;2024-02-15T10:10:20;99654.03;;;14.10;60.03
53270;BME280;39159;45.634;9.420;2024-02-15T10:12:46;99648.75;;;14.22;61.50
53270;BME280;39159;45.634;9.420;2024-02-15T10:15:33;99652.00;;;14.24;61.36
53270;BME280;39159;45.634;9.420;2024-02-15T10:18:00;99644.84;;;14.15;58.66
53270;BME280;39159;45.634;9.420;2024-02-15T10:20:25;99655.53;;;13.94;59.00
53270;BME280;39159;45.634;9.420;2024-02-15T10:25:26;99652.44;;;14.18;59.50
53270;BME280;39159;45.634;9.420;2024-02-15T10:27:51;99647.09;;;14.44;60.08
53270;BME280;39159;45.634;9.420;2024-02-15T10:30:19;99648.97;;;14.66;58.48
53270;BME280;39159;45.634;9.420;2024-02-15T10:32:45;99644.94;;;14.63;57.50
53270;BME280;39159;45.634;9.420;2024-02-15T10:35:21;99651.56;;;14.71;56.73
53270;BME280;39159;45.634;9.420;2024-02-15T10:37:47;99643.25;;;14.54;57.50
53270;BME280;39159;45.634;9.420;2024-02-15T10:40:17;99646.81;;;14.54;58.28
53270;BME280;39159;45.634;9.420;2024-02-15T10:42:43;99639.50;;;14.81;58.98
53270;BME280;39159;45.634;9.420;2024-02-15T10:45:11;99637.09;;;14.97;58.26
53270;BME280;39159;45.634;9.420;2024-02-15T10:47:37;99649.41;;;15.08;55.76
53270;BME280;39159;45.634;9.420;2024-02-15T10:50:03;99643.25;;;15.02;56.44
53270;BME280;39159;45.634;9.420;2024-02-15T10:52:31;99639.03;;;14.96;56.68
53270;BME280;39159;45.634;9.420;2024-02-15T10:54:58;99640.66;;;14.97;55.55
53270;BME280;39159;45.634;9.420;2024-02-15T10:57:28;99641.88;;;14.74;56.07
53270;BME280;39159;45.634;9.420;2024-02-15T10:59:56;99631.06;;;14.37;57.54
53270;BME280;39159;45.634;9.420;2024-02-15T11:04:52;99626.78;;;13.91;60.60
53270;BME280;39159;45.634;9.420;2024-02-15T11:07:24;99631.22;;;13.78;60.90
53270;BME280;39159;45.634;9.420;2024-02-15T11:09:51;99623.25;;;13.68;62.54
53270;BME280;39159;45.634;9.420;2024-02-15T11:12:17;99620.31;;;13.64;61.97
53270;BME280;39159;45.634;9.420;2024-02-15T11:14:45;99611.09;;;13.60;62.44
53270;BME280;39159;45.634;9.420;2024-02-15T11:17:11;99609.28;;;13.56;63.06
53270;BME280;39159;45.634;9.420;2024-02-15T11:22:15;99597.00;;;13.53;64.14
53270;BME280;39159;45.634;9.420;2024-02-15T11:24:51;99593.59;;;13.47;63.54
53270;BME280;39159;45.634;9.420;2024-02-15T11:27:29;99591.47;;;13.44;64.13
53270;BME280;39159;45.634;9.420;2024-02-15T11:29:55;99592.91;;;13.42;64.20
53270;BME280;39159;45.634;9.420;2024-02-15T11:32:34;99587.03;;;13.35;65.22
53270;BME280;39159;45.634;9.420;2024-02-15T11:38:09;99577.22;;;13.20;63.78
53270;BME280;39159;45.634;9.420;2024-02-15T11:43:07;99566.84;;;13.31;64.00
53270;BME280;39159;45.634;9.420;2024-02-15T11:45:34;99571.25;;;13.40;64.46
53270;BME280;39159;45.634;9.420;2024-02-15T11:48:06;99563.72;;;13.46;64.57
53270;BME280;39159;45.634;9.420;2024-02-15T11:50:34;99557.31;;;13.51;63.36
53270;BME280;39159;45.634;9.420;2024-02-15T11:53:02;99557.00;;;13.52;63.55
53270;BME280;39159;45.634;9.420;2024-02-15T11:55:34;99551.88;;;13.59;64.24
53270;BME280;39159;45.634;9.420;2024-02-15T11:58:01;99550.81;;;13.69;62.76
53270;BME280;39159;45.634;9.420;2024-02-15T12:00:49;99547.50;;;13.81;62.34
53270;BME280;39159;45.634;9.420;2024-02-15T12:03:33;99543.44;;;13.78;63.27
53270;BME280;39159;45.634;9.420;2024-02-15T12:06:17;99546.66;;;13.80;62.85
53270;BME280;39159;45.634;9.420;2024-02-15T12:09:01;99534.88;;;13.80;63.54
53270;BME280;39159;45.634;9.420;2024-02-15T12:11:46;99542.06;;;13.89;63.91
53270;BME280;39159;45.634;9.420;2024-02-15T12:14:29;99534.28;;;13.83;63.75
53270;BME280;39159;45.634;9.420;2024-02-15T12:17:13;99525.84;;;13.79;65.32
53270;BME280;39159;45.634;9.420;2024-02-15T12:20:01;99528.94;;;13.86;66.22
53270;BME280;39159;45.634;9.420;2024-02-15T12:22:32;99522.31;;;13.79;65.54
53270;BME280;39159;45.634;9.420;2024-02-15T12:24:59;99525.72;;;13.84;65.15
53270;BME280;39159;45.634;9.420;2024-02-15T12:27:31;99518.94;;;13.82;65.07
53270;BME280;39159;45.634;9.420;2024-02-15T12:29:57;99524.16;;;13.61;65.52
53270;BME280;39159;45.634;9.420;2024-02-15T12:32:23;99517.34;;;13.58;65.95
53270;BME280;39159;45.634;9.420;2024-02-15T12:34:49;99514.28;;;13.60;66.15
53270;BME280;39159;45.634;9.420;2024-02-15T12:37:14;99516.53;;;13.58;65.68
53270;BME280;39159;45.634;9.420;2024-02-15T12:39:42;99509.91;;;13.50;65.75
53270;BME280;39159;45.634;9.420;2024-02-15T12:42:08;99509.84;;;13.41;67.06
53270;BME280;39159;45.634;9.420;2024-02-15T12:44:34;99505.47;;;13.40;68.52
53270;BME280;39159;45.634;9.420;2024-02-15T12:47:00;99498.06;;;13.41;66.95
53270;BME280;39159;45.634;9.420;2024-02-15T12:49:28;99495.50;;;13.44;68.10
53270;BME280;39159;45.634;9.420;2024-02-15T12:51:54;99485.53;;;13.48;67.77
53270;BME280;39159;45.634;9.420;2024-02-15T12:54:39;99480.78;;;13.40;66.86
53270;BME280;39159;45.634;9.420;2024-02-15T12:57:08;99479.69;;;13.41;65.12
53270;BME280;39159;45.634;9.420;2024-02-15T12:59:39;99481.06;;;13.30;66.12
53270;BME280;39159;45.634;9.420;2024-02-15T13:02:04;99470.91;;;13.31;66.12
53270;BME280;39159;45.634;9.420;2024-02-15T13:04:29;99472.03;;;13.30;66.32
53270;BME280;39159;45.634;9.420;2024-02-15T13:06:54;99471.81;;;13.26;65.89
53270;BME280;39159;45.634;9.420;2024-02-15T13:09:20;99475.81;;;13.20;64.58
53270;BME280;39159;45.634;9.420;2024-02-15T13:11:47;99462.72;;;13.17;65.79
53270;BME280;39159;45.634;9.420;2024-02-15T13:14:15;99465.63;;;13.20;66.92
53270;BME280;39159;45.634;9.420;2024-02-15T13:16:40;99467.28;;;13.21;65.23